Terminal Aerodrome Forecast
Issued by NWS Topeka, KS

Home | Current Version | Previous Version | Text Only | Print | Product List | Glossary On
Versions: 1 2 3 4 5 6 7 8 9 10 11 12 13 14
000
FTUS43 KTOP 030800 AAB
TAFTOP
TAF AMD
KTOP 030850Z 0309/0406 18010KT P6SM VCTS SCT050CB WS020/19030KT
      TEMPO 0309/0310 4SM -TSRA BKN035CB
     FM031100 18010KT P6SM SCT015
     FM031400 18015G22KT P6SM FEW150
     FM040100 16010KT P6SM SCT120=

USA.gov is the U.S. government's official web portal to all federal, state and local government web resources and services.